Latest Weather Observations for Latrobe Valley

IDV60801

Issued at 7:35 pm EST Wednesday 23 April 2014 (issued every 30 minutes, with the page automatically refreshed every 10 minutes)

About weather observations | Map of weather stations | Latest weather observations for VIC | Other Formats
Station Details ID: 085280 Name: LATROBE VALLEY AIRPORT Lat: -38.21 Lon: 146.47 Height: 55.7 m
Data from the previous 72 hours. | See also: Recent months at Latrobe Valley
Date/Time
EST
Temp
°C
App
Temp
°C
Dew
Point
Rel
Hum
%
Delta-T
°C
Wind Press
QNH
hPa
Press
MSL
hPa
Rain
since 9 am
mm
Dir
 
Spd
km/h
Gust
km/h
Spd
kts
Gust
kts
23/07:30pm 11.8 11.9 10.2 90 0.8 NW 0 0 0 0 1013.6 - 0.0
23/07:00pm 11.8 10.4 9.7 87 1.1 W 7 7 4 4 1013.6 - 0.0
23/06:30pm 12.3 10.6 9.9 85 1.2 WNW 9 13 5 7 1013.5 - 0.0
23/06:00pm 14.2 12.8 9.6 74 2.4 WNW 7 9 4 5 1013.3 1013.3 0.0
23/05:30pm 14.9 13.5 9.7 71 2.7 WSW 7 9 4 5 1013.2 - 0.0
23/05:00pm 16.1 14.5 10.2 68 3.1 WSW 9 13 5 7 1013.1 - 0.0
23/04:30pm 17.1 14.6 9.8 62 3.8 WSW 13 17 7 9 1013.2 - 0.0
23/04:00pm 17.1 14.5 9.5 61 4.0 WSW 13 19 7 10 1013.2 - 0.0
23/03:30pm 17.9 14.5 9.3 57 4.5 W 17 24 9 13 1013.1 - 0.0
23/03:00pm 18.1 13.6 8.4 53 5.0 W 22 30 12 16 1013.3 1013.3 0.0
23/02:30pm 17.6 13.4 9.8 60 4.1 W 22 28 12 15 1013.4 - 0.0
23/02:00pm 18.6 15.3 10.9 61 4.2 W 19 30 10 16 1013.4 - 0.0
23/01:30pm 18.0 15.8 12.0 68 3.3 W 15 20 8 11 1013.6 - 0.0
23/01:00pm 16.9 15.7 11.6 71 2.9 WNW 9 15 5 8 1014.0 - 0.0
23/12:30pm 17.0 16.7 12.7 76 2.4 SSE 6 9 3 5 1014.5 - 0.0
23/12:00pm 16.6 16.1 12.8 78 2.1 SE 7 11 4 6 1015.2 1015.2 0.0
23/11:49am 16.5 16.0 12.7 78 2.1 E 7 11 4 6 1015.3 - 0.0
23/11:30am 17.0 16.6 12.9 77 2.3 E 7 9 4 5 1015.6 - 0.0
23/11:00am 15.6 15.1 12.2 80 1.9 NE 6 9 3 5 1015.9 - 0.0
23/10:30am 15.5 14.6 12.6 83 1.6 E 9 11 5 6 1016.2 - 0.0
23/10:00am 15.2 14.2 12.3 83 1.6 NE 9 15 5 8 1016.3 - 0.0
23/09:50am 15.3 14.5 13.0 86 1.3 ENE 9 13 5 7 1016.3 - 0.0
23/09:33am 14.7 14.2 12.7 88 1.1 ENE 7 11 4 6 1016.5 - 0.0
23/09:30am 14.5 14.0 12.5 88 1.1 NE 7 11 4 6 1016.5 - 0.0
23/09:00am 14.6 14.6 13.6 94 0.6 ENE 6 9 3 5 1016.6 1016.6 6.4
23/08:30am 13.1 13.3 13.1 100 0.0 ENE 4 11 2 6 1016.4 - 6.4
23/08:00am 12.9 13.1 12.9 100 0.0 E 4 7 2 4 1016.4 - 6.4
23/07:30am 12.6 13.4 12.6 100 0.0 CALM 0 0 0 0 1016.5 - 6.4
23/07:00am 12.5 12.9 12.5 100 0.0 E 2 6 1 3 1016.4 - 6.4
23/06:30am 12.6 13.0 12.6 100 0.0 ESE 2 7 1 4 1016.3 - 6.4
23/06:00am 12.6 12.3 12.6 100 0.0 ESE 6 9 3 5 1016.4 1016.4 6.4
23/05:30am 12.6 12.3 12.6 100 0.0 ESE 6 6 3 3 1016.3 - 6.4
23/05:00am 12.6 12.3 12.6 100 0.0 E 6 7 3 4 1016.6 - 6.4
23/04:30am 12.6 12.3 12.6 100 0.0 E 6 7 3 4 1016.5 - 6.4
23/04:00am 12.5 13.3 12.5 100 0.0 CALM 0 0 0 0 1016.5 - 6.4
23/03:30am 12.6 12.3 12.6 100 0.0 E 6 6 3 3 1016.6 - 6.4
23/03:00am 12.6 13.0 12.6 100 0.0 ESE 2 6 1 3 1016.7 1016.7 6.4
23/02:30am 12.6 12.1 12.6 100 0.0 NNE 7 9 4 5 1016.9 - 6.4
23/02:00am 12.9 13.8 12.9 100 0.0 CALM 0 6 0 3 1016.9 - 6.4
23/01:30am 13.0 13.9 13.0 100 0.0 CALM 0 0 0 0 1017.3 - 6.4
23/01:00am 12.9 13.8 12.9 100 0.0 CALM 0 0 0 0 1017.4 - 6.4
23/12:30am 12.9 12.7 12.9 100 0.0 W 6 7 3 4 1017.5 - 6.4
23/12:00am 12.9 12.5 12.9 100 0.0 NW 7 9 4 5 1017.6 1017.6 6.4
 
Date/Time
EST
Temp
°C
App
Temp
°C
Dew
Point
Rel
Hum
%
Delta-T
°C
Wind Press
QNH
hPa
Press
MSL
hPa
Rain
since 9 am
mm
Dir
 
Spd
km/h
Gust
km/h
Spd
kts
Gust
kts
22/11:30pm 13.0 12.8 13.0 100 0.0 SW 6 9 3 5 1017.6 - 6.4
22/11:00pm 12.9 13.8 12.9 100 0.0 CALM 0 6 0 3 1017.7 - 6.4
22/10:30pm 12.8 12.0 12.8 100 0.0 W 9 13 5 7 1017.8 - 6.4
22/10:00pm 12.7 12.4 12.7 100 0.0 W 6 7 3 4 1017.7 - 6.4
22/09:30pm 12.9 12.7 12.9 100 0.0 NNW 6 7 3 4 1017.5 - 6.4
22/09:23pm 13.0 12.8 13.0 100 0.0 N 6 7 3 4 1017.6 - 6.4
22/09:05pm 13.1 12.7 13.1 100 0.0 NW 7 9 4 5 1017.6 - 6.2
22/09:04pm 13.1 12.4 13.1 100 0.0 NW 9 9 5 5 1017.6 - 6.2
22/09:00pm 13.1 12.7 13.1 100 0.0 NW 7 9 4 5 1017.6 1017.6 6.2
22/08:46pm 13.1 12.4 13.1 100 0.0 NW 9 11 5 6 1017.5 - 6.2
22/08:30pm 13.2 12.9 13.2 100 0.0 WNW 7 9 4 5 1017.4 - 6.0
22/08:00pm 13.3 12.6 13.3 100 0.0 W 9 11 5 6 1017.2 - 6.0
22/07:30pm 13.5 12.9 13.5 100 0.0 W 9 11 5 6 1017.2 - 5.6
22/07:06pm 13.5 12.1 13.5 100 0.0 WSW 13 19 7 10 1016.9 - 5.6
22/07:00pm 13.5 11.8 13.5 100 0.0 WSW 15 20 8 11 1016.9 - 5.6
22/06:48pm 13.5 12.1 13.3 99 0.1 W 13 17 7 9 1016.7 - 5.6
22/06:35pm 13.8 12.1 13.6 99 0.1 WSW 15 20 8 11 1016.5 - 5.6
22/06:30pm 14.1 12.5 13.9 99 0.1 WSW 15 19 8 10 1016.3 - 5.2
22/06:16pm 14.2 12.6 14.0 99 0.1 W 15 17 8 9 1016.1 - 5.0
22/06:00pm 14.2 12.6 14.0 99 0.1 W 15 20 8 11 1015.7 1015.7 4.8
22/05:30pm 14.3 13.1 14.0 98 0.2 W 13 17 7 9 1015.4 - 4.8
22/05:00pm 14.5 12.9 14.0 97 0.3 WSW 15 17 8 9 1015.0 - 4.4
22/04:30pm 14.6 13.5 14.3 98 0.2 W 13 17 7 9 1014.9 - 4.4
22/04:00pm 15.0 13.9 14.2 95 0.5 W 13 17 7 9 1014.6 - 3.6
22/03:30pm 15.3 13.8 14.3 94 0.6 W 15 20 8 11 1014.6 - 3.4
22/03:00pm 15.5 13.2 14.0 91 0.8 WNW 19 28 10 15 1014.2 1014.1 3.2
22/02:30pm 15.6 14.4 14.0 90 0.9 WSW 13 19 7 10 1013.8 - 2.8
22/02:00pm 15.7 16.6 14.1 90 0.9 WSW 2 7 1 4 1014.0 - 2.8
22/01:30pm 15.4 13.2 13.4 88 1.1 WNW 17 28 9 15 1013.8 - 2.6
22/01:00pm 15.6 14.5 14.3 92 0.7 W 13 20 7 11 1014.2 - 2.6
22/12:30pm 15.7 15.4 14.4 92 0.7 WSW 9 11 5 6 1014.5 - 2.4
22/12:00pm 15.4 15.6 14.1 92 0.7 S 6 11 3 6 1014.6 1014.6 2.2
22/11:30am 14.9 14.1 13.9 94 0.6 N 11 15 6 8 1015.1 - 2.2
22/11:00am 14.5 14.4 13.2 92 0.7 N 6 9 3 5 1015.8 - 1.4
22/10:30am 14.5 13.7 12.9 90 0.9 N 9 13 5 7 1015.6 - 1.0
22/10:00am 13.7 12.9 12.8 94 0.5 N 9 11 5 6 1016.0 - 0.8
22/09:30am 13.9 12.6 12.5 91 0.8 WNW 11 17 6 9 1016.1 - 0.2
22/09:00am 13.3 11.8 12.0 92 0.7 WSW 11 15 6 8 1016.9 1016.9 0.4
22/08:30am 12.5 10.6 11.7 95 0.4 WSW 13 20 7 11 1016.9 - 0.0
22/08:00am 12.4 12.4 11.3 93 0.6 W 2 7 1 4 1015.5 - 0.0
22/07:30am 11.8 12.1 10.9 94 0.5 CALM 0 0 0 0 1015.3 - 0.0
22/07:00am 11.1 10.4 9.9 92 0.6 NE 4 7 2 4 1014.7 - 0.0
22/06:30am 11.6 10.3 9.2 85 1.2 S 6 9 3 5 1014.0 - 0.0
22/06:00am 11.1 9.9 9.7 91 0.7 WNW 6 17 3 9 1013.9 1013.9 0.0
22/05:30am 10.8 9.8 8.9 88 0.9 NNE 4 11 2 6 1013.0 - 0.0
22/05:00am 10.8 9.3 9.1 89 0.8 NNW 7 9 4 5 1012.8 - 0.0
22/04:30am 11.9 10.1 9.6 86 1.2 SW 9 13 5 7 1012.8 - 0.0
22/04:00am 10.6 7.7 9.8 95 0.4 SW 15 20 8 11 1012.6 - 0.0
22/03:30am 10.1 9.3 9.6 97 0.3 SW 4 11 2 6 1012.2 - 0.0
22/03:00am 9.9 9.0 9.4 97 0.2 NW 4 9 2 5 1012.3 1012.3 0.0
22/02:30am 9.0 8.6 8.2 95 0.4 CALM 0 0 0 0 1012.6 - 0.0
22/02:00am 9.3 9.0 8.5 95 0.4 CALM 0 0 0 0 1012.9 - 0.0
22/01:30am 9.5 8.7 8.3 92 0.6 NNW 2 9 1 5 1013.2 - 0.0
22/01:00am 10.1 9.1 8.9 92 0.6 NNE 4 7 2 4 1013.4 - 0.0
22/12:30am 10.3 10.1 9.1 92 0.6 CALM 0 7 0 4 1013.9 - 0.0
22/12:00am 10.3 10.1 8.9 91 0.7 CALM 0 6 0 3 1014.2 1014.1 0.0
 
Date/Time
EST
Temp
°C
App
Temp
°C
Dew
Point
Rel
Hum
%
Delta-T
°C
Wind Press
QNH
hPa
Press
MSL
hPa
Rain
since 9 am
mm
Dir
 
Spd
km/h
Gust
km/h
Spd
kts
Gust
kts
21/11:30pm 10.4 10.1 8.7 89 0.8 CALM 0 0 0 0 1014.2 - 0.0
21/11:00pm 11.1 10.9 9.0 87 1.0 CALM 0 0 0 0 1014.4 - 0.0
21/10:30pm 10.8 10.5 8.6 86 1.1 CALM 0 0 0 0 1014.5 - 0.0
21/10:00pm 11.6 11.3 8.8 83 1.4 CALM 0 0 0 0 1014.6 - 0.0
21/09:30pm 11.6 11.2 8.3 80 1.6 CALM 0 0 0 0 1014.8 - 0.0
21/09:00pm 12.7 11.6 8.4 75 2.1 NW 4 9 2 5 1014.7 1014.7 0.0
21/08:30pm 14.5 12.5 8.5 67 3.0 E 9 11 5 6 1014.6 - 0.0
21/08:00pm 14.4 12.8 8.6 68 2.9 E 7 11 4 6 1014.7 - 0.0
21/07:30pm 14.9 13.3 8.6 66 3.2 E 7 11 4 6 1014.8 - 0.0
21/07:00pm 14.5 12.9 8.2 66 3.2 NNE 6 9 3 5 1014.8 - 0.0
21/06:30pm 15.8 14.3 9.0 64 3.5 NE 7 9 4 5 1014.7 - 0.0
21/06:00pm 15.4 13.6 9.5 68 3.1 NNE 9 11 5 6 1014.7 1014.7 0.0
21/05:30pm 17.4 17.3 9.3 59 4.2 CALM 0 0 0 0 1014.8 - 0.0
21/05:00pm 18.7 17.5 9.5 55 4.9 WNW 6 7 3 4 1014.9 - 0.0
21/04:30pm 19.0 17.0 10.0 56 4.8 W 11 13 6 7 1015.1 - 0.0
21/04:00pm 20.4 18.6 10.8 54 5.3 WSW 11 15 6 8 1015.2 - 0.0
21/03:30pm 20.6 19.6 10.4 52 5.5 W 6 13 3 7 1015.7 - 0.0
21/03:00pm 21.2 20.0 9.4 47 6.3 NW 6 9 3 5 1015.4 1015.4 0.0
21/02:30pm 21.0 19.5 9.3 47 6.2 NE 7 13 4 7 1015.3 - 0.0
21/02:00pm 20.7 18.9 9.6 49 5.9 E 9 15 5 8 1015.3 - 0.0
21/01:30pm 19.5 17.7 9.4 52 5.4 ENE 9 17 5 9 1015.9 - 0.0
21/01:00pm 19.2 17.4 9.4 53 5.2 E 9 13 5 7 1016.5 - 0.0
21/12:30pm 19.1 17.6 9.3 53 5.2 E 7 11 4 6 1017.2 - 0.0
21/12:00pm 18.3 16.8 8.6 53 5.0 E 6 13 3 7 1017.8 1017.8 0.0
21/11:30am 17.2 15.3 9.1 59 4.2 NE 9 13 5 7 1018.3 - 0.0
21/11:00am 16.5 15.0 9.2 62 3.8 NE 7 11 4 6 1018.8 - 0.0
21/10:30am 15.9 14.4 9.1 64 3.5 ENE 7 11 4 6 1019.0 - 0.0
21/10:00am 14.5 12.9 8.7 68 2.9 E 7 9 4 5 1019.2 - 0.0
21/09:30am 13.3 12.2 10.1 81 1.7 ENE 6 9 3 5 1019.4 - 0.0
21/09:00am 11.1 9.8 10.0 93 0.6 NE 7 11 4 6 1019.5 1019.5 0.0
21/08:30am 8.7 8.4 8.6 99 0.0 CALM 0 0 0 0 1019.9 - 0.0
21/08:00am 6.8 6.0 6.7 99 0.0 CALM 0 6 0 3 1019.9 - 0.0
21/07:34am 5.3 4.2 5.2 99 0.0 CALM 0 0 0 0 1019.7 - 0.0
21/07:30am 5.1 4.0 5.0 99 0.0 CALM 0 0 0 0 1019.7 - 0.0
21/07:21am 4.8 3.6 4.7 99 0.0 CALM 0 0 0 0 1019.6 - 0.0
21/07:00am 3.8 2.4 3.7 99 0.0 CALM 0 0 0 0 1019.3 - 0.0
21/06:30am 4.3 3.0 4.2 99 0.0 CALM 0 0 0 0 1019.2 - 0.0
21/06:00am 3.8 1.7 3.7 99 0.0 SW 4 7 2 4 1019.1 1019.1 0.0
21/05:30am 3.2 1.7 3.1 99 0.0 CALM 0 0 0 0 1018.9 - 0.0
21/05:00am 4.1 2.8 4.0 99 0.0 CALM 0 0 0 0 1018.7 - 0.0
21/04:30am 4.4 3.1 4.3 99 0.0 CALM 0 0 0 0 1018.7 - 0.0
21/04:00am 3.7 1.5 3.6 99 0.0 SW 4 7 2 4 1018.4 - 0.0
21/03:30am 3.7 2.3 3.6 99 0.0 CALM 0 0 0 0 1018.1 - 0.0
21/03:00am 4.8 3.6 4.7 99 0.0 CALM 0 6 0 3 1018.1 1018.1 0.0
21/02:30am 4.4 3.1 4.3 99 0.0 CALM 0 0 0 0 1018.3 - 0.0
21/02:00am 4.9 2.9 4.6 98 0.1 S 4 6 2 3 1018.4 - 0.0
21/01:30am 4.7 3.5 4.4 98 0.1 CALM 0 0 0 0 1018.5 - 0.0
21/01:00am 5.8 4.8 5.5 98 0.1 CALM 0 0 0 0 1018.5 - 0.0
21/12:30am 5.3 4.1 4.7 96 0.3 CALM 0 0 0 0 1018.4 - 0.0
21/12:00am 6.6 4.4 6.0 96 0.3 ESE 7 9 4 5 1018.3 1018.3 0.0
 
Date/Time
EST
Temp
°C
App
Temp
°C
Dew
Point
Rel
Hum
%
Delta-T
°C
Wind Press
QNH
hPa
Press
MSL
hPa
Rain
since 9 am
mm
Dir
 
Spd
km/h
Gust
km/h
Spd
kts
Gust
kts
20/11:30pm 6.3 5.3 5.6 95 0.3 CALM 0 0 0 0 1018.4 - 0.0
20/11:00pm 6.3 4.8 4.9 91 0.6 NNW 2 6 1 3 1018.4 - 0.0
20/10:30pm 7.7 6.9 6.3 91 0.6 CALM 0 0 0 0 1018.5 - 0.0
20/10:00pm 7.6 6.7 5.9 89 0.8 CALM 0 0 0 0 1018.6 - 0.0
20/09:30pm 9.1 7.5 6.4 83 1.3 SSE 4 6 2 3 1018.5 - 0.0
20/09:00pm 9.5 7.3 6.4 81 1.4 SSE 7 9 4 5 1018.3 1018.3 0.0
20/08:30pm 9.2 7.6 6.3 82 1.3 S 4 9 2 5 1018.0 - 0.0
20/08:00pm 10.6 8.4 6.2 74 2.1 WSW 7 11 4 6 1017.9 - 0.0

Other Formats:

Comma delimited format used in spreadsheet applications
http://www.bom.gov.au/fwo/IDV60801/IDV60801.94891.axf

JavaScript Object Notation format (JSON) in row-major order
http://www.bom.gov.au/fwo/IDV60801/IDV60801.94891.json